sensor_id;sensor_type;location;lat;lon;timestamp;P1;durP1;ratioP1;P2;durP2;ratioP2
27566;SDS011;15006;48.584;9.186;2023-03-17T00:02:21;24.15;;;14.68;;
27566;SDS011;15006;48.584;9.186;2023-03-17T00:04:54;18.33;;;11.48;;
27566;SDS011;15006;48.584;9.186;2023-03-17T00:07:22;30.10;;;15.40;;
27566;SDS011;15006;48.584;9.186;2023-03-17T00:09:53;25.45;;;14.63;;
27566;SDS011;15006;48.584;9.186;2023-03-17T00:12:30;18.70;;;11.70;;
27566;SDS011;15006;48.584;9.186;2023-03-17T00:14:58;25.73;;;13.00;;
27566;SDS011;15006;48.584;9.186;2023-03-17T00:17:30;19.85;;;12.23;;
27566;SDS011;15006;48.584;9.186;2023-03-17T00:19:58;20.27;;;10.43;;
27566;SDS011;15006;48.584;9.186;2023-03-17T00:22:27;15.07;;;8.88;;
27566;SDS011;15006;48.584;9.186;2023-03-17T00:24:56;14.82;;;9.80;;
27566;SDS011;15006;48.584;9.186;2023-03-17T00:27:24;8.57;;;7.68;;
27566;SDS011;15006;48.584;9.186;2023-03-17T00:29:59;9.38;;;7.15;;
27566;SDS011;15006;48.584;9.186;2023-03-17T00:32:28;9.45;;;8.52;;
27566;SDS011;15006;48.584;9.186;2023-03-17T00:34:56;12.38;;;7.97;;
27566;SDS011;15006;48.584;9.186;2023-03-17T00:37:33;6.60;;;6.10;;
27566;SDS011;15006;48.584;9.186;2023-03-17T00:40:07;7.13;;;5.75;;
27566;SDS011;15006;48.584;9.186;2023-03-17T00:42:46;5.25;;;4.85;;
27566;SDS011;15006;48.584;9.186;2023-03-17T00:45:28;6.78;;;6.20;;
27566;SDS011;15006;48.584;9.186;2023-03-17T00:48:02;7.70;;;6.63;;
27566;SDS011;15006;48.584;9.186;2023-03-17T00:50:49;7.88;;;6.82;;
27566;SDS011;15006;48.584;9.186;2023-03-17T00:53:26;7.85;;;6.65;;
27566;SDS011;15006;48.584;9.186;2023-03-17T00:55:55;9.18;;;6.30;;
27566;SDS011;15006;48.584;9.186;2023-03-17T00:58:31;6.93;;;6.22;;
27566;SDS011;15006;48.584;9.186;2023-03-17T01:01:04;6.50;;;5.88;;
27566;SDS011;15006;48.584;9.186;2023-03-17T01:03:42;7.03;;;6.43;;
27566;SDS011;15006;48.584;9.186;2023-03-17T01:06:14;5.70;;;5.20;;
27566;SDS011;15006;48.584;9.186;2023-03-17T01:08:49;5.78;;;5.30;;
27566;SDS011;15006;48.584;9.186;2023-03-17T01:11:24;5.82;;;5.32;;
27566;SDS011;15006;48.584;9.186;2023-03-17T01:14:13;5.95;;;5.43;;
27566;SDS011;15006;48.584;9.186;2023-03-17T01:16:54;5.63;;;5.18;;
27566;SDS011;15006;48.584;9.186;2023-03-17T01:19:30;5.70;;;5.13;;
27566;SDS011;15006;48.584;9.186;2023-03-17T01:22:09;7.18;;;5.00;;
27566;SDS011;15006;48.584;9.186;2023-03-17T01:24:47;6.50;;;6.07;;
27566;SDS011;15006;48.584;9.186;2023-03-17T01:27:25;5.97;;;5.43;;
27566;SDS011;15006;48.584;9.186;2023-03-17T01:30:27;5.18;;;4.88;;
27566;SDS011;15006;48.584;9.186;2023-03-17T01:32:57;5.95;;;5.35;;
27566;SDS011;15006;48.584;9.186;2023-03-17T01:35:27;5.47;;;5.07;;
27566;SDS011;15006;48.584;9.186;2023-03-17T01:38:03;5.85;;;5.20;;
27566;SDS011;15006;48.584;9.186;2023-03-17T01:40:46;6.57;;;5.10;;
27566;SDS011;15006;48.584;9.186;2023-03-17T01:43:25;5.55;;;5.03;;
27566;SDS011;15006;48.584;9.186;2023-03-17T01:49:12;5.13;;;4.70;;
27566;SDS011;15006;48.584;9.186;2023-03-17T01:52:01;5.35;;;4.95;;
27566;SDS011;15006;48.584;9.186;2023-03-17T01:54:53;5.38;;;4.97;;
27566;SDS011;15006;48.584;9.186;2023-03-17T02:00:17;5.28;;;4.88;;
27566;SDS011;15006;48.584;9.186;2023-03-17T02:02:53;6.07;;;5.68;;
27566;SDS011;15006;48.584;9.186;2023-03-17T02:05:27;5.68;;;5.20;;
27566;SDS011;15006;48.584;9.186;2023-03-17T02:08:13;5.55;;;5.15;;
27566;SDS011;15006;48.584;9.186;2023-03-17T02:10:43;6.47;;;5.80;;
27566;SDS011;15006;48.584;9.186;2023-03-17T02:13:15;7.07;;;6.32;;
27566;SDS011;15006;48.584;9.186;2023-03-17T02:15:47;8.32;;;6.47;;
27566;SDS011;15006;48.584;9.186;2023-03-17T02:18:23;5.63;;;5.20;;
27566;SDS011;15006;48.584;9.186;2023-03-17T02:23:58;6.30;;;5.72;;
27566;SDS011;15006;48.584;9.186;2023-03-17T02:26:33;7.38;;;6.25;;
27566;SDS011;15006;48.584;9.186;2023-03-17T02:29:03;6.72;;;6.13;;
27566;SDS011;15006;48.584;9.186;2023-03-17T02:31:32;6.80;;;6.22;;
27566;SDS011;15006;48.584;9.186;2023-03-17T02:34:01;6.32;;;5.93;;
27566;SDS011;15006;48.584;9.186;2023-03-17T02:36:29;5.95;;;5.55;;
27566;SDS011;15006;48.584;9.186;2023-03-17T02:38:58;6.60;;;6.10;;
27566;SDS011;15006;48.584;9.186;2023-03-17T02:41:27;5.45;;;5.03;;
27566;SDS011;15006;48.584;9.186;2023-03-17T02:43:56;6.72;;;6.00;;
27566;SDS011;15006;48.584;9.186;2023-03-17T02:46:25;5.57;;;5.15;;
27566;SDS011;15006;48.584;9.186;2023-03-17T02:48:53;5.97;;;5.40;;
27566;SDS011;15006;48.584;9.186;2023-03-17T02:51:21;5.55;;;5.18;;
27566;SDS011;15006;48.584;9.186;2023-03-17T02:53:50;5.93;;;5.43;;
27566;SDS011;15006;48.584;9.186;2023-03-17T02:56:18;6.45;;;5.82;;
27566;SDS011;15006;48.584;9.186;2023-03-17T02:58:46;5.95;;;5.45;;
27566;SDS011;15006;48.584;9.186;2023-03-17T03:01:14;5.78;;;5.38;;
27566;SDS011;15006;48.584;9.186;2023-03-17T03:03:43;5.32;;;4.97;;
27566;SDS011;15006;48.584;9.186;2023-03-17T03:06:12;6.30;;;5.80;;
27566;SDS011;15006;48.584;9.186;2023-03-17T03:08:40;5.95;;;5.55;;
27566;SDS011;15006;48.584;9.186;2023-03-17T03:11:08;5.95;;;5.45;;
27566;SDS011;15006;48.584;9.186;2023-03-17T03:13:36;5.75;;;5.25;;
27566;SDS011;15006;48.584;9.186;2023-03-17T03:16:03;6.35;;;5.30;;
27566;SDS011;15006;48.584;9.186;2023-03-17T03:18:34;5.80;;;5.40;;
27566;SDS011;15006;48.584;9.186;2023-03-17T03:21:03;9.93;;;5.53;;
27566;SDS011;15006;48.584;9.186;2023-03-17T03:23:33;5.72;;;4.93;;
27566;SDS011;15006;48.584;9.186;2023-03-17T03:26:01;6.20;;;5.57;;
27566;SDS011;15006;48.584;9.186;2023-03-17T03:28:30;6.45;;;5.95;;
27566;SDS011;15006;48.584;9.186;2023-03-17T03:31:01;6.68;;;6.07;;
27566;SDS011;15006;48.584;9.186;2023-03-17T03:33:30;6.15;;;5.65;;
27566;SDS011;15006;48.584;9.186;2023-03-17T03:35:59;6.13;;;5.70;;
27566;SDS011;15006;48.584;9.186;2023-03-17T03:38:28;6.15;;;5.68;;
27566;SDS011;15006;48.584;9.186;2023-03-17T03:40:56;5.82;;;5.43;;
27566;SDS011;15006;48.584;9.186;2023-03-17T03:43:22;5.90;;;5.50;;
27566;SDS011;15006;48.584;9.186;2023-03-17T03:45:48;6.18;;;5.75;;
27566;SDS011;15006;48.584;9.186;2023-03-17T03:48:15;6.38;;;5.78;;
27566;SDS011;15006;48.584;9.186;2023-03-17T03:50:42;7.35;;;5.35;;
27566;SDS011;15006;48.584;9.186;2023-03-17T03:53:08;5.47;;;4.97;;
27566;SDS011;15006;48.584;9.186;2023-03-17T03:55:34;5.10;;;4.70;;
27566;SDS011;15006;48.584;9.186;2023-03-17T03:58:00;6.30;;;5.43;;
27566;SDS011;15006;48.584;9.186;2023-03-17T04:00:27;5.43;;;5.03;;
27566;SDS011;15006;48.584;9.186;2023-03-17T04:02:54;5.07;;;4.65;;
27566;SDS011;15006;48.584;9.186;2023-03-17T04:05:20;5.80;;;5.40;;
27566;SDS011;15006;48.584;9.186;2023-03-17T04:07:46;5.65;;;5.10;;
27566;SDS011;15006;48.584;9.186;2023-03-17T04:10:18;5.95;;;5.45;;
27566;SDS011;15006;48.584;9.186;2023-03-17T04:12:47;5.38;;;4.75;;
27566;SDS011;15006;48.584;9.186;2023-03-17T04:15:18;5.20;;;4.80;;
27566;SDS011;15006;48.584;9.186;2023-03-17T04:17:51;5.43;;;5.03;;
27566;SDS011;15006;48.584;9.186;2023-03-17T04:20:19;5.68;;;4.95;;
27566;SDS011;15006;48.584;9.186;2023-03-17T04:22:51;5.10;;;4.80;;
27566;SDS011;15006;48.584;9.186;2023-03-17T04:25:17;5.00;;;4.50;;
27566;SDS011;15006;48.584;9.186;2023-03-17T04:27:47;5.10;;;4.70;;
27566;SDS011;15006;48.584;9.186;2023-03-17T04:30:15;5.78;;;5.38;;
27566;SDS011;15006;48.584;9.186;2023-03-17T04:32:43;12.65;;;5.82;;
27566;SDS011;15006;48.584;9.186;2023-03-17T04:35:12;6.00;;;5.25;;
27566;SDS011;15006;48.584;9.186;2023-03-17T04:37:43;6.75;;;6.15;;
27566;SDS011;15006;48.584;9.186;2023-03-17T04:40:13;6.47;;;5.80;;
27566;SDS011;15006;48.584;9.186;2023-03-17T04:42:41;5.57;;;5.15;;
27566;SDS011;15006;48.584;9.186;2023-03-17T04:45:11;6.85;;;5.22;;
27566;SDS011;15006;48.584;9.186;2023-03-17T04:47:50;5.47;;;4.93;;
27566;SDS011;15006;48.584;9.186;2023-03-17T04:50:16;5.90;;;5.30;;
27566;SDS011;15006;48.584;9.186;2023-03-17T04:52:42;5.80;;;5.40;;
27566;SDS011;15006;48.584;9.186;2023-03-17T04:55:14;6.35;;;5.75;;
27566;SDS011;15006;48.584;9.186;2023-03-17T04:57:43;5.60;;;5.15;;
27566;SDS011;15006;48.584;9.186;2023-03-17T05:00:20;8.45;;;5.60;;
27566;SDS011;15006;48.584;9.186;2023-03-17T05:02:58;6.32;;;5.75;;
27566;SDS011;15006;48.584;9.186;2023-03-17T05:05:33;6.55;;;6.03;;
27566;SDS011;15006;48.584;9.186;2023-03-17T05:08:00;5.72;;;5.32;;
27566;SDS011;15006;48.584;9.186;2023-03-17T05:10:27;5.85;;;5.45;;
27566;SDS011;15006;48.584;9.186;2023-03-17T05:12:56;7.30;;;5.72;;
27566;SDS011;15006;48.584;9.186;2023-03-17T05:15:30;6.90;;;6.20;;
27566;SDS011;15006;48.584;9.186;2023-03-17T05:17:59;6.43;;;5.53;;
27566;SDS011;15006;48.584;9.186;2023-03-17T05:20:36;8.60;;;6.13;;
27566;SDS011;15006;48.584;9.186;2023-03-17T05:23:10;8.30;;;6.50;;
27566;SDS011;15006;48.584;9.186;2023-03-17T05:25:45;7.00;;;6.00;;
27566;SDS011;15006;48.584;9.186;2023-03-17T05:28:12;7.68;;;6.38;;
27566;SDS011;15006;48.584;9.186;2023-03-17T05:30:39;6.65;;;6.05;;
27566;SDS011;15006;48.584;9.186;2023-03-17T05:33:10;6.03;;;5.53;;
27566;SDS011;15006;48.584;9.186;2023-03-17T05:35:41;6.38;;;5.72;;
27566;SDS011;15006;48.584;9.186;2023-03-17T05:38:10;6.50;;;5.90;;
27566;SDS011;15006;48.584;9.186;2023-03-17T05:40:38;7.35;;;6.40;;
27566;SDS011;15006;48.584;9.186;2023-03-17T05:43:04;6.75;;;6.20;;
27566;SDS011;15006;48.584;9.186;2023-03-17T05:45:31;14.98;;;6.63;;
27566;SDS011;15006;48.584;9.186;2023-03-17T05:47:57;10.82;;;6.57;;
27566;SDS011;15006;48.584;9.186;2023-03-17T05:50:24;9.63;;;6.05;;
27566;SDS011;15006;48.584;9.186;2023-03-17T05:52:54;6.57;;;5.90;;
27566;SDS011;15006;48.584;9.186;2023-03-17T05:55:20;8.75;;;6.22;;
27566;SDS011;15006;48.584;9.186;2023-03-17T05:57:49;10.13;;;4.78;;
27566;SDS011;15006;48.584;9.186;2023-03-17T06:00:15;5.53;;;4.60;;
27566;SDS011;15006;48.584;9.186;2023-03-17T06:02:43;10.98;;;4.80;;
27566;SDS011;15006;48.584;9.186;2023-03-17T06:05:15;5.45;;;4.63;;
27566;SDS011;15006;48.584;9.186;2023-03-17T06:07:43;5.13;;;4.63;;
27566;SDS011;15006;48.584;9.186;2023-03-17T06:10:10;4.88;;;4.40;;
27566;SDS011;15006;48.584;9.186;2023-03-17T06:12:43;4.97;;;4.10;;
27566;SDS011;15006;48.584;9.186;2023-03-17T06:15:09;7.32;;;4.55;;
27566;SDS011;15006;48.584;9.186;2023-03-17T06:17:43;5.43;;;4.90;;
27566;SDS011;15006;48.584;9.186;2023-03-17T06:20:09;5.55;;;4.82;;
27566;SDS011;15006;48.584;9.186;2023-03-17T06:22:47;6.78;;;4.60;;
27566;SDS011;15006;48.584;9.186;2023-03-17T06:25:13;6.53;;;4.28;;
27566;SDS011;15006;48.584;9.186;2023-03-17T06:27:46;4.45;;;4.05;;
27566;SDS011;15006;48.584;9.186;2023-03-17T06:30:22;10.88;;;7.68;;
27566;SDS011;15006;48.584;9.186;2023-03-17T06:32:50;12.60;;;6.68;;
27566;SDS011;15006;48.584;9.186;2023-03-17T06:38:36;6.63;;;5.72;;
27566;SDS011;15006;48.584;9.186;2023-03-17T06:43:52;8.77;;;6.13;;
27566;SDS011;15006;48.584;9.186;2023-03-17T06:46:24;10.73;;;5.30;;
27566;SDS011;15006;48.584;9.186;2023-03-17T06:48:57;6.18;;;5.07;;
27566;SDS011;15006;48.584;9.186;2023-03-17T06:51:47;9.63;;;5.50;;
27566;SDS011;15006;48.584;9.186;2023-03-17T06:54:20;6.85;;;5.20;;
27566;SDS011;15006;48.584;9.186;2023-03-17T06:56:57;6.50;;;5.28;;
27566;SDS011;15006;48.584;9.186;2023-03-17T06:59:31;5.28;;;4.78;;
27566;SDS011;15006;48.584;9.186;2023-03-17T07:02:08;7.32;;;4.88;;
27566;SDS011;15006;48.584;9.186;2023-03-17T07:04:40;5.00;;;4.60;;
27566;SDS011;15006;48.584;9.186;2023-03-17T07:07:06;5.95;;;5.10;;
27566;SDS011;15006;48.584;9.186;2023-03-17T07:09:33;5.60;;;5.18;;
27566;SDS011;15006;48.584;9.186;2023-03-17T07:12:03;7.00;;;5.28;;
27566;SDS011;15006;48.584;9.186;2023-03-17T07:14:35;7.32;;;4.80;;
27566;SDS011;15006;48.584;9.186;2023-03-17T07:17:02;4.75;;;4.40;;
27566;SDS011;15006;48.584;9.186;2023-03-17T07:23:21;5.28;;;4.32;;
27566;SDS011;15006;48.584;9.186;2023-03-17T07:25:48;7.15;;;4.72;;
27566;SDS011;15006;48.584;9.186;2023-03-17T07:28:17;6.35;;;4.35;;
27566;SDS011;15006;48.584;9.186;2023-03-17T07:30:46;4.90;;;4.10;;
27566;SDS011;15006;48.584;9.186;2023-03-17T07:33:19;4.72;;;4.32;;
27566;SDS011;15006;48.584;9.186;2023-03-17T07:36:22;7.45;;;4.40;;
27566;SDS011;15006;48.584;9.186;2023-03-17T07:38:51;5.38;;;4.82;;
27566;SDS011;15006;48.584;9.186;2023-03-17T07:41:29;4.28;;;4.07;;
27566;SDS011;15006;48.584;9.186;2023-03-17T07:44:54;4.47;;;3.97;;
27566;SDS011;15006;48.584;9.186;2023-03-17T07:47:47;4.43;;;4.10;;
27566;SDS011;15006;48.584;9.186;2023-03-17T07:50:14;3.85;;;3.65;;
27566;SDS011;15006;48.584;9.186;2023-03-17T07:53:42;4.43;;;4.13;;
27566;SDS011;15006;48.584;9.186;2023-03-17T07:56:25;5.85;;;3.80;;
27566;SDS011;15006;48.584;9.186;2023-03-17T07:58:54;4.20;;;3.75;;
27566;SDS011;15006;48.584;9.186;2023-03-17T08:01:25;4.53;;;4.13;;
27566;SDS011;15006;48.584;9.186;2023-03-17T08:03:55;5.35;;;4.85;;
27566;SDS011;15006;48.584;9.186;2023-03-17T08:09:47;6.93;;;4.88;;
27566;SDS011;15006;48.584;9.186;2023-03-17T08:12:13;8.25;;;5.35;;
27566;SDS011;15006;48.584;9.186;2023-03-17T08:14:55;5.32;;;4.85;;
27566;SDS011;15006;48.584;9.186;2023-03-17T08:17:27;7.53;;;4.72;;
27566;SDS011;15006;48.584;9.186;2023-03-17T08:19:53;5.10;;;4.50;;
27566;SDS011;15006;48.584;9.186;2023-03-17T08:22:25;6.00;;;4.47;;
27566;SDS011;15006;48.584;9.186;2023-03-17T08:24:52;6.45;;;3.85;;
27566;SDS011;15006;48.584;9.186;2023-03-17T08:27:18;3.80;;;3.55;;
27566;SDS011;15006;48.584;9.186;2023-03-17T08:29:45;4.00;;;3.17;;
27566;SDS011;15006;48.584;9.186;2023-03-17T08:32:12;3.97;;;3.50;;
27566;SDS011;15006;48.584;9.186;2023-03-17T08:34:39;4.78;;;3.08;;
27566;SDS011;15006;48.584;9.186;2023-03-17T08:37:05;3.45;;;3.15;;
27566;SDS011;15006;48.584;9.186;2023-03-17T08:39:31;5.70;;;3.42;;
27566;SDS011;15006;48.584;9.186;2023-03-17T08:41:58;3.13;;;2.92;;
27566;SDS011;15006;48.584;9.186;2023-03-17T08:44:24;4.72;;;3.33;;
27566;SDS011;15006;48.584;9.186;2023-03-17T08:46:50;4.05;;;3.08;;
27566;SDS011;15006;48.584;9.186;2023-03-17T08:49:16;5.40;;;3.55;;
27566;SDS011;15006;48.584;9.186;2023-03-17T08:51:42;3.58;;;3.25;;
27566;SDS011;15006;48.584;9.186;2023-03-17T08:54:09;3.83;;;3.45;;
27566;SDS011;15006;48.584;9.186;2023-03-17T08:56:36;9.10;;;3.08;;
27566;SDS011;15006;48.584;9.186;2023-03-17T08:59:05;5.72;;;3.20;;
27566;SDS011;15006;48.584;9.186;2023-03-17T09:01:32;3.85;;;2.97;;
27566;SDS011;15006;48.584;9.186;2023-03-17T09:03:59;3.28;;;2.97;;
27566;SDS011;15006;48.584;9.186;2023-03-17T09:06:26;3.25;;;3.05;;
27566;SDS011;15006;48.584;9.186;2023-03-17T09:08:52;5.72;;;2.80;;
27566;SDS011;15006;48.584;9.186;2023-03-17T09:11:23;3.67;;;2.58;;
27566;SDS011;15006;48.584;9.186;2023-03-17T09:13:51;3.33;;;3.03;;
27566;SDS011;15006;48.584;9.186;2023-03-17T09:16:18;2.58;;;2.20;;
27566;SDS011;15006;48.584;9.186;2023-03-17T09:18:45;2.05;;;1.90;;
27566;SDS011;15006;48.584;9.186;2023-03-17T09:21:11;3.55;;;2.40;;
27566;SDS011;15006;48.584;9.186;2023-03-17T09:23:39;4.63;;;1.63;;
27566;SDS011;15006;48.584;9.186;2023-03-17T09:26:05;1.75;;;1.65;;
27566;SDS011;15006;48.584;9.186;2023-03-17T09:28:32;1.50;;;1.50;;
27566;SDS011;15006;48.584;9.186;2023-03-17T09:31:02;4.15;;;1.50;;
27566;SDS011;15006;48.584;9.186;2023-03-17T09:33:31;2.10;;;1.58;;
27566;SDS011;15006;48.584;9.186;2023-03-17T09:35:57;1.38;;;1.30;;
27566;SDS011;15006;48.584;9.186;2023-03-17T09:38:24;1.48;;;1.38;;
27566;SDS011;15006;48.584;9.186;2023-03-17T09:49:28;4.63;;;1.30;;
27566;SDS011;15006;48.584;9.186;2023-03-17T09:52:16;1.50;;;1.40;;
27566;SDS011;15006;48.584;9.186;2023-03-17T09:54:49;2.38;;;1.67;;
27566;SDS011;15006;48.584;9.186;2023-03-17T09:57:16;1.77;;;1.67;;
27566;SDS011;15006;48.584;9.186;2023-03-17T09:59:51;1.60;;;1.50;;
27566;SDS011;15006;48.584;9.186;2023-03-17T10:02:29;1.55;;;1.45;;
27566;SDS011;15006;48.584;9.186;2023-03-17T10:05:18;2.55;;;1.50;;
27566;SDS011;15006;48.584;9.186;2023-03-17T10:08:11;3.05;;;1.75;;
27566;SDS011;15006;48.584;9.186;2023-03-17T10:16:58;2.63;;;1.30;;
27566;SDS011;15006;48.584;9.186;2023-03-17T10:19:47;1.50;;;0.90;;
27566;SDS011;15006;48.584;9.186;2023-03-17T10:22:30;2.17;;;0.90;;
27566;SDS011;15006;48.584;9.186;2023-03-17T10:25:17;0.80;;;0.60;;
27566;SDS011;15006;48.584;9.186;2023-03-17T10:27:57;1.02;;;0.73;;
27566;SDS011;15006;48.584;9.186;2023-03-17T10:30:52;4.53;;;1.33;;
27566;SDS011;15006;48.584;9.186;2023-03-17T10:33:18;2.58;;;1.30;;
27566;SDS011;15006;48.584;9.186;2023-03-17T10:35:45;2.25;;;2.15;;
27566;SDS011;15006;48.584;9.186;2023-03-17T10:40:46;2.38;;;2.08;;
27566;SDS011;15006;48.584;9.186;2023-03-17T10:43:28;3.65;;;1.98;;
27566;SDS011;15006;48.584;9.186;2023-03-17T10:46:01;5.57;;;1.83;;
27566;SDS011;15006;48.584;9.186;2023-03-17T10:48:54;1.77;;;1.67;;
27566;SDS011;15006;48.584;9.186;2023-03-17T10:51:30;2.42;;;1.85;;
27566;SDS011;15006;48.584;9.186;2023-03-17T10:54:12;3.80;;;1.38;;
27566;SDS011;15006;48.584;9.186;2023-03-17T10:56:43;1.80;;;1.60;;
27566;SDS011;15006;48.584;9.186;2023-03-17T11:01:55;2.45;;;1.13;;
27566;SDS011;15006;48.584;9.186;2023-03-17T11:04:41;1.08;;;1.08;;
27566;SDS011;15006;48.584;9.186;2023-03-17T11:07:13;1.10;;;1.00;;
27566;SDS011;15006;48.584;9.186;2023-03-17T11:09:49;0.85;;;0.80;;
27566;SDS011;15006;48.584;9.186;2023-03-17T11:14:49;1.17;;;1.08;;
27566;SDS011;15006;48.584;9.186;2023-03-17T11:17:16;1.27;;;1.27;;
27566;SDS011;15006;48.584;9.186;2023-03-17T11:29:27;0.93;;;0.70;;
27566;SDS011;15006;48.584;9.186;2023-03-17T11:34:59;0.80;;;0.80;;
27566;SDS011;15006;48.584;9.186;2023-03-17T11:37:58;0.70;;;0.70;;
27566;SDS011;15006;48.584;9.186;2023-03-17T11:40:51;2.28;;;1.02;;
27566;SDS011;15006;48.584;9.186;2023-03-17T11:46:33;0.70;;;0.70;;
27566;SDS011;15006;48.584;9.186;2023-03-17T11:49:38;3.53;;;0.98;;
27566;SDS011;15006;48.584;9.186;2023-03-17T11:52:17;1.77;;;1.00;;
27566;SDS011;15006;48.584;9.186;2023-03-17T11:55:07;1.23;;;1.13;;
27566;SDS011;15006;48.584;9.186;2023-03-17T11:57:57;2.40;;;1.08;;
27566;SDS011;15006;48.584;9.186;2023-03-17T12:00:35;1.10;;;1.10;;
27566;SDS011;15006;48.584;9.186;2023-03-17T12:03:21;1.95;;;1.10;;
27566;SDS011;15006;48.584;9.186;2023-03-17T12:06:11;1.00;;;1.00;;
27566;SDS011;15006;48.584;9.186;2023-03-17T12:08:59;1.17;;;1.05;;
27566;SDS011;15006;48.584;9.186;2023-03-17T12:11:34;3.20;;;0.70;;
27566;SDS011;15006;48.584;9.186;2023-03-17T12:14:05;0.75;;;0.75;;
27566;SDS011;15006;48.584;9.186;2023-03-17T12:19:26;1.77;;;0.90;;
27566;SDS011;15006;48.584;9.186;2023-03-17T12:28:07;1.10;;;0.95;;
27566;SDS011;15006;48.584;9.186;2023-03-17T12:30:47;1.25;;;1.15;;
27566;SDS011;15006;48.584;9.186;2023-03-17T12:33:21;1.10;;;1.10;;
27566;SDS011;15006;48.584;9.186;2023-03-17T12:36:13;2.70;;;1.30;;
27566;SDS011;15006;48.584;9.186;2023-03-17T12:38:45;1.23;;;1.23;;
27566;SDS011;15006;48.584;9.186;2023-03-17T12:53:03;3.92;;;1.42;;
27566;SDS011;15006;48.584;9.186;2023-03-17T12:55:56;1.38;;;1.27;;
27566;SDS011;15006;48.584;9.186;2023-03-17T12:58:53;1.67;;;1.58;;
27566;SDS011;15006;48.584;9.186;2023-03-17T13:01:41;1.30;;;1.20;;
27566;SDS011;15006;48.584;9.186;2023-03-17T13:06:42;2.42;;;1.77;;
27566;SDS011;15006;48.584;9.186;2023-03-17T13:09:34;5.40;;;1.60;;
27566;SDS011;15006;48.584;9.186;2023-03-17T13:12:33;2.50;;;1.60;;
27566;SDS011;15006;48.584;9.186;2023-03-17T13:15:19;2.00;;;1.55;;
27566;SDS011;15006;48.584;9.186;2023-03-17T13:23:16;1.70;;;1.60;;
27566;SDS011;15006;48.584;9.186;2023-03-17T13:25:50;1.55;;;1.45;;
27566;SDS011;15006;48.584;9.186;2023-03-17T13:28:25;2.17;;;1.70;;
27566;SDS011;15006;48.584;9.186;2023-03-17T13:31:07;2.63;;;1.60;;
27566;SDS011;15006;48.584;9.186;2023-03-17T13:33:34;2.00;;;1.80;;
27566;SDS011;15006;48.584;9.186;2023-03-17T13:53:38;1.40;;;1.30;;
27566;SDS011;15006;48.584;9.186;2023-03-17T13:56:21;2.38;;;1.15;;
27566;SDS011;15006;48.584;9.186;2023-03-17T14:04:21;2.92;;;1.10;;
27566;SDS011;15006;48.584;9.186;2023-03-17T14:06:54;1.10;;;1.00;;
27566;SDS011;15006;48.584;9.186;2023-03-17T14:09:37;5.97;;;1.17;;
27566;SDS011;15006;48.584;9.186;2023-03-17T14:12:12;1.08;;;0.93;;
27566;SDS011;15006;48.584;9.186;2023-03-17T14:15:02;0.80;;;0.80;;
27566;SDS011;15006;48.584;9.186;2023-03-17T14:17:41;0.70;;;0.70;;
27566;SDS011;15006;48.584;9.186;2023-03-17T14:22:43;1.57;;;0.80;;
27566;SDS011;15006;48.584;9.186;2023-03-17T14:25:16;13.73;;;1.70;;
27566;SDS011;15006;48.584;9.186;2023-03-17T14:27:53;1.55;;;0.75;;
27566;SDS011;15006;48.584;9.186;2023-03-17T14:30:28;0.68;;;0.60;;
27566;SDS011;15006;48.584;9.186;2023-03-17T14:35:31;1.13;;;0.80;;
27566;SDS011;15006;48.584;9.186;2023-03-17T14:38:00;0.80;;;0.80;;
27566;SDS011;15006;48.584;9.186;2023-03-17T14:40:28;0.82;;;0.60;;
27566;SDS011;15006;48.584;9.186;2023-03-17T14:43:00;0.82;;;0.75;;
27566;SDS011;15006;48.584;9.186;2023-03-17T14:45:28;3.00;;;1.15;;
27566;SDS011;15006;48.584;9.186;2023-03-17T14:48:11;0.80;;;0.80;;
27566;SDS011;15006;48.584;9.186;2023-03-17T14:50:46;0.90;;;0.90;;
27566;SDS011;15006;48.584;9.186;2023-03-17T14:53:40;1.65;;;0.82;;
27566;SDS011;15006;48.584;9.186;2023-03-17T14:56:09;2.05;;;0.90;;
27566;SDS011;15006;48.584;9.186;2023-03-17T14:58:36;1.23;;;1.00;;
27566;SDS011;15006;48.584;9.186;2023-03-17T15:01:15;4.72;;;4.25;;
27566;SDS011;15006;48.584;9.186;2023-03-17T15:03:58;1.40;;;1.30;;
27566;SDS011;15006;48.584;9.186;2023-03-17T15:09:26;3.10;;;2.30;;
27566;SDS011;15006;48.584;9.186;2023-03-17T15:12:04;3.83;;;2.33;;
27566;SDS011;15006;48.584;9.186;2023-03-17T15:14:32;3.90;;;1.15;;
27566;SDS011;15006;48.584;9.186;2023-03-17T15:17:05;4.78;;;0.82;;
27566;SDS011;15006;48.584;9.186;2023-03-17T15:19:41;4.25;;;1.17;;
27566;SDS011;15006;48.584;9.186;2023-03-17T15:22:25;4.40;;;1.70;;
27566;SDS011;15006;48.584;9.186;2023-03-17T15:25:19;2.83;;;2.33;;
27566;SDS011;15006;48.584;9.186;2023-03-17T15:27:57;2.47;;;2.20;;
27566;SDS011;15006;48.584;9.186;2023-03-17T15:30:23;2.10;;;1.90;;
27566;SDS011;15006;48.584;9.186;2023-03-17T15:33:00;3.95;;;1.45;;
27566;SDS011;15006;48.584;9.186;2023-03-17T15:35:27;2.78;;;1.40;;
27566;SDS011;15006;48.584;9.186;2023-03-17T15:37:53;2.33;;;2.13;;
27566;SDS011;15006;48.584;9.186;2023-03-17T15:40:20;4.45;;;2.08;;
27566;SDS011;15006;48.584;9.186;2023-03-17T15:42:49;2.95;;;1.92;;
27566;SDS011;15006;48.584;9.186;2023-03-17T15:45:15;4.78;;;2.20;;
27566;SDS011;15006;48.584;9.186;2023-03-17T15:47:42;5.55;;;2.50;;
27566;SDS011;15006;48.584;9.186;2023-03-17T15:50:22;2.30;;;1.77;;
27566;SDS011;15006;48.584;9.186;2023-03-17T15:52:53;1.50;;;1.40;;
27566;SDS011;15006;48.584;9.186;2023-03-17T15:55:29;1.70;;;1.60;;
27566;SDS011;15006;48.584;9.186;2023-03-17T15:57:56;1.33;;;1.23;;
27566;SDS011;15006;48.584;9.186;2023-03-17T16:00:23;1.40;;;1.05;;
27566;SDS011;15006;48.584;9.186;2023-03-17T16:02:53;1.50;;;1.40;;
27566;SDS011;15006;48.584;9.186;2023-03-17T16:05:23;2.83;;;1.25;;
27566;SDS011;15006;48.584;9.186;2023-03-17T16:07:52;1.17;;;1.15;;
27566;SDS011;15006;48.584;9.186;2023-03-17T16:12:51;1.83;;;1.27;;
27566;SDS011;15006;48.584;9.186;2023-03-17T16:15:18;3.00;;;1.60;;
27566;SDS011;15006;48.584;9.186;2023-03-17T16:17:50;1.77;;;1.17;;
27566;SDS011;15006;48.584;9.186;2023-03-17T16:20:27;1.40;;;1.30;;
27566;SDS011;15006;48.584;9.186;2023-03-17T16:23:13;3.08;;;1.23;;
27566;SDS011;15006;48.584;9.186;2023-03-17T16:25:48;1.77;;;1.40;;
27566;SDS011;15006;48.584;9.186;2023-03-17T16:28:25;1.65;;;1.20;;
27566;SDS011;15006;48.584;9.186;2023-03-17T16:30:54;3.67;;;1.20;;
27566;SDS011;15006;48.584;9.186;2023-03-17T16:33:24;2.53;;;1.60;;
27566;SDS011;15006;48.584;9.186;2023-03-17T16:35:57;1.60;;;1.50;;
27566;SDS011;15006;48.584;9.186;2023-03-17T16:38:27;2.17;;;1.98;;
27566;SDS011;15006;48.584;9.186;2023-03-17T16:41:06;3.28;;;1.88;;
27566;SDS011;15006;48.584;9.186;2023-03-17T16:43:41;5.18;;;2.10;;
27566;SDS011;15006;48.584;9.186;2023-03-17T16:46:09;3.83;;;1.77;;
27566;SDS011;15006;48.584;9.186;2023-03-17T16:48:36;4.22;;;2.20;;
27566;SDS011;15006;48.584;9.186;2023-03-17T16:51:02;6.85;;;2.70;;
27566;SDS011;15006;48.584;9.186;2023-03-17T16:53:29;3.15;;;2.95;;
27566;SDS011;15006;48.584;9.186;2023-03-17T16:55:55;5.57;;;3.10;;
27566;SDS011;15006;48.584;9.186;2023-03-17T16:58:23;8.27;;;3.03;;
27566;SDS011;15006;48.584;9.186;2023-03-17T17:00:58;6.30;;;3.27;;
27566;SDS011;15006;48.584;9.186;2023-03-17T17:03:28;5.03;;;2.40;;
27566;SDS011;15006;48.584;9.186;2023-03-17T17:05:56;3.67;;;2.10;;
27566;SDS011;15006;48.584;9.186;2023-03-17T17:08:23;3.95;;;2.50;;
27566;SDS011;15006;48.584;9.186;2023-03-17T17:10:49;17.02;;;3.00;;
27566;SDS011;15006;48.584;9.186;2023-03-17T17:13:18;2.75;;;2.53;;
27566;SDS011;15006;48.584;9.186;2023-03-17T17:15:44;7.30;;;3.20;;
27566;SDS011;15006;48.584;9.186;2023-03-17T17:18:18;7.97;;;3.45;;
27566;SDS011;15006;48.584;9.186;2023-03-17T17:20:46;5.22;;;3.97;;
27566;SDS011;15006;48.584;9.186;2023-03-17T17:23:15;5.53;;;3.42;;
27566;SDS011;15006;48.584;9.186;2023-03-17T17:25:50;5.00;;;3.10;;